createdAt,value
2018-11-05T00:01:40.616Z,49.60
2018-11-05T00:04:09.209Z,49.60
2018-11-05T00:06:37.893Z,49.70
2018-11-05T00:09:08.909Z,49.60
2018-11-05T00:11:37.546Z,49.50
2018-11-05T00:14:06.554Z,49.50
2018-11-05T00:16:35.082Z,49.50
2018-11-05T00:19:03.720Z,49.50
2018-11-05T00:21:32.524Z,49.50
2018-11-05T00:24:01.233Z,49.40
2018-11-05T00:26:29.822Z,49.60
2018-11-05T00:28:58.461Z,49.60
2018-11-05T00:31:26.952Z,49.60
2018-11-05T00:33:55.426Z,49.60
2018-11-05T00:36:24.617Z,49.60
2018-11-05T00:38:53.158Z,49.60
2018-11-05T00:41:21.786Z,49.60
2018-11-05T00:43:50.529Z,49.70
2018-11-05T00:46:19.092Z,49.60
2018-11-05T00:48:47.946Z,49.70
2018-11-05T00:51:16.970Z,49.60
2018-11-05T00:53:45.834Z,49.70
2018-11-05T00:56:15.546Z,49.70
2018-11-05T00:58:44.585Z,49.60
2018-11-05T01:01:13.428Z,49.60
2018-11-05T01:03:42.337Z,49.60
2018-11-05T01:06:11.336Z,49.60
2018-11-05T01:08:47.006Z,49.60
2018-11-05T01:11:15.620Z,49.60
2018-11-05T01:13:44.093Z,49.60
2018-11-05T01:16:12.509Z,49.60
2018-11-05T01:18:41.410Z,49.60
2018-11-05T01:21:09.867Z,49.60
2018-11-05T01:23:38.550Z,49.60
2018-11-05T01:26:07.889Z,49.60
2018-11-05T01:28:36.332Z,49.60
2018-11-05T01:31:05.265Z,49.60
2018-11-05T01:33:33.855Z,49.60
2018-11-05T01:36:02.462Z,49.50
2018-11-05T01:38:31.057Z,49.50
2018-11-05T01:40:59.543Z,49.60
2018-11-05T01:43:28.206Z,49.60
2018-11-05T01:45:56.696Z,49.60
2018-11-05T01:48:25.228Z,49.60
2018-11-05T02:11:02.468Z,49.60
2018-11-05T02:13:31.701Z,49.60
2018-11-05T02:16:00.137Z,49.60
2018-11-05T02:18:28.579Z,49.60
2018-11-05T02:20:57.745Z,49.60
2018-11-05T02:23:26.168Z,49.60
2018-11-05T02:25:54.694Z,49.60
2018-11-05T02:28:23.390Z,49.60
2018-11-05T02:30:52.568Z,49.60
2018-11-05T02:33:21.047Z,49.60
2018-11-05T02:35:49.577Z,49.50
2018-11-05T02:38:18.188Z,49.50
2018-11-05T02:40:46.633Z,49.60
2018-11-05T02:43:15.047Z,49.40
2018-11-05T02:45:43.914Z,49.50
2018-11-05T02:48:12.558Z,49.40
2018-11-05T02:50:40.981Z,49.50
2018-11-05T02:53:09.520Z,49.50
2018-11-05T02:55:38.054Z,49.50
2018-11-05T02:58:06.671Z,49.40
2018-11-05T03:00:35.313Z,49.30
2018-11-05T03:03:04.333Z,49.50
2018-11-05T03:05:32.747Z,49.40
2018-11-05T03:08:01.456Z,49.40
2018-11-05T03:10:30.100Z,49.40
2018-11-05T03:12:58.570Z,49.40
2018-11-05T03:15:27.065Z,49.40
2018-11-05T03:17:55.625Z,49.40
2018-11-05T03:20:25.879Z,49.40
2018-11-05T03:22:54.663Z,49.40
2018-11-05T03:25:23.754Z,49.40
2018-11-05T03:27:53.005Z,49.40
2018-11-05T03:30:21.465Z,49.40
2018-11-05T03:32:50.374Z,49.40
2018-11-05T03:35:19.002Z,49.40
2018-11-05T03:37:47.696Z,49.40
2018-11-05T03:40:16.636Z,49.40
2018-11-05T03:42:45.680Z,49.30
2018-11-05T03:45:15.353Z,49.40
2018-11-05T03:47:44.809Z,49.30
2018-11-05T03:50:16.421Z,49.30
2018-11-05T03:52:46.019Z,49.40
2018-11-05T03:55:16.435Z,49.40
2018-11-05T03:57:45.425Z,49.40
2018-11-05T04:00:16.991Z,49.40
2018-11-05T04:02:48.081Z,49.40
2018-11-05T04:05:20.305Z,49.40
2018-11-05T04:07:49.333Z,49.40
2018-11-05T04:10:22.012Z,49.40
2018-11-05T04:12:52.042Z,49.40
2018-11-05T04:15:22.261Z,49.30
2018-11-05T04:17:51.036Z,49.30
2018-11-05T04:20:19.615Z,49.40
2018-11-05T04:22:48.513Z,49.40
2018-11-05T04:25:17.455Z,49.30
2018-11-05T04:27:46.415Z,49.30
2018-11-05T04:30:16.215Z,49.30
2018-11-05T04:32:44.878Z,49.30
2018-11-05T04:35:13.777Z,49.30
2018-11-05T04:37:42.281Z,49.30
2018-11-05T04:40:11.551Z,49.30
2018-11-05T04:42:40.295Z,49.20
2018-11-05T04:45:10.600Z,49.20
2018-11-05T04:47:40.258Z,49.20
2018-11-05T04:50:10.071Z,49.20
2018-11-05T04:52:39.169Z,49.20
2018-11-05T04:55:07.787Z,49.20
2018-11-05T04:57:36.591Z,49.20
2018-11-05T05:00:11.392Z,49.20
2018-11-05T05:02:41.191Z,49.20
2018-11-05T05:05:11.445Z,49.20
2018-11-05T05:07:40.398Z,49.20
2018-11-05T05:10:09.557Z,49.20
2018-11-05T05:12:45.513Z,49.10
2018-11-05T05:15:14.572Z,49.10
2018-11-05T05:17:43.273Z,49.10
2018-11-05T05:20:14.109Z,49.20
2018-11-05T05:22:43.306Z,49.20
2018-11-05T05:25:11.755Z,49.10
2018-11-05T05:27:40.859Z,49.20
2018-11-05T05:30:13.409Z,49.20
2018-11-05T05:32:42.321Z,49.10
2018-11-05T05:35:10.608Z,49.20
2018-11-05T05:37:39.283Z,49.20
2018-11-05T05:40:08.049Z,49.10
2018-11-05T05:42:36.533Z,49.20
2018-11-05T05:45:06.129Z,49.10
2018-11-05T05:47:34.545Z,49.10
2018-11-05T05:50:03.340Z,49.10
2018-11-05T05:52:32.049Z,49.10
2018-11-05T05:55:00.477Z,49.20
2018-11-05T05:57:28.922Z,49.20
2018-11-05T05:59:57.725Z,49.10
2018-11-05T06:02:26.139Z,49.10
2018-11-05T06:04:54.744Z,49.00
2018-11-05T06:07:23.397Z,49.10
2018-11-05T06:09:51.894Z,49.10
2018-11-05T06:12:20.409Z,49.10
2018-11-05T06:14:48.956Z,49.10
2018-11-05T06:17:17.690Z,49.10
2018-11-05T06:19:46.144Z,49.10
2018-11-05T06:22:15.212Z,49.10
2018-11-05T06:24:44.258Z,49.00
2018-11-05T06:27:12.733Z,49.20
2018-11-05T06:29:41.373Z,49.10
2018-11-05T06:32:10.030Z,49.10
2018-11-05T06:34:38.719Z,49.70
2018-11-05T06:37:07.301Z,49.10
2018-11-05T06:39:35.957Z,49.10
2018-11-05T06:42:04.673Z,49.70
2018-11-05T06:44:33.389Z,49.10
2018-11-05T06:47:02.144Z,49.10
2018-11-05T06:49:30.556Z,49.20
2018-11-05T06:51:58.969Z,49.00
2018-11-05T06:54:27.781Z,49.10
2018-11-05T06:56:56.985Z,49.00
2018-11-05T06:59:25.681Z,49.00
2018-11-05T07:01:54.369Z,49.00
2018-11-05T07:04:24.976Z,49.00
2018-11-05T07:06:53.542Z,49.10
2018-11-05T07:09:22.153Z,49.10
2018-11-05T07:11:50.678Z,49.00
2018-11-05T07:14:19.157Z,49.10
2018-11-05T07:16:47.609Z,49.00
2018-11-05T07:19:16.303Z,49.10
2018-11-05T07:21:44.713Z,49.00
2018-11-05T07:24:13.420Z,48.80
2018-11-05T07:26:42.249Z,48.90
2018-11-05T07:29:11.049Z,48.90
2018-11-05T07:31:39.683Z,49.10
2018-11-05T07:34:08.647Z,49.30
2018-11-05T07:36:37.309Z,49.40
2018-11-05T07:39:09.138Z,49.70
2018-11-05T07:41:38.906Z,49.90
2018-11-05T07:44:07.401Z,49.90
2018-11-05T07:46:36.013Z,49.80
2018-11-05T07:49:04.591Z,49.80
2018-11-05T07:51:33.439Z,49.80
2018-11-05T07:54:01.963Z,49.80
2018-11-05T07:56:30.477Z,49.70
2018-11-05T07:58:59.104Z,49.90
2018-11-05T08:01:28.123Z,49.90
2018-11-05T08:03:56.672Z,49.90
2018-11-05T08:06:25.269Z,50.00
2018-11-05T08:08:54.037Z,50.00
2018-11-05T08:11:22.967Z,50.00
2018-11-05T08:13:51.626Z,50.10
2018-11-05T08:16:20.052Z,50.20
2018-11-05T08:18:48.657Z,50.20
2018-11-05T08:21:17.264Z,50.20
2018-11-05T08:23:46.728Z,51.00
2018-11-05T08:26:15.353Z,50.80
2018-11-05T08:28:43.994Z,50.70
2018-11-05T08:31:12.463Z,50.70
2018-11-05T08:33:41.076Z,50.70
2018-11-05T08:36:09.976Z,50.60
2018-11-05T08:38:38.601Z,50.70
2018-11-05T08:41:07.274Z,50.70
2018-11-05T08:43:35.843Z,50.60
2018-11-05T08:46:04.541Z,50.70
2018-11-05T08:48:34.247Z,50.70
2018-11-05T08:51:02.885Z,50.60
2018-11-05T08:53:31.501Z,50.50
2018-11-05T08:56:00.221Z,50.40
2018-11-05T08:58:28.786Z,50.20
2018-11-05T09:01:03.789Z,50.00
2018-11-05T09:03:36.505Z,49.80
2018-11-05T09:06:04.956Z,49.50
2018-11-05T09:08:34.487Z,49.40
2018-11-05T09:11:03.890Z,49.40
2018-11-05T09:13:31.972Z,49.50
2018-11-05T09:16:01.158Z,49.70
2018-11-05T09:18:29.760Z,49.90
2018-11-05T09:20:58.379Z,50.10
2018-11-05T09:23:26.962Z,50.30
2018-11-05T09:25:55.563Z,50.40
2018-11-05T09:28:24.118Z,50.50
2018-11-05T09:30:52.695Z,50.70
2018-11-05T09:33:21.220Z,50.70
2018-11-05T09:35:49.753Z,50.70
2018-11-05T09:38:18.337Z,50.80
2018-11-05T09:40:46.776Z,50.90
2018-11-05T09:43:15.351Z,50.90
2018-11-05T09:45:44.458Z,51.00
2018-11-05T09:48:12.992Z,50.90
2018-11-05T09:50:41.577Z,51.00
2018-11-05T09:53:10.020Z,51.10
2018-11-05T09:55:38.540Z,51.20
2018-11-05T09:58:08.201Z,51.20
2018-11-05T10:00:36.759Z,51.20
2018-11-05T10:03:10.927Z,51.20
2018-11-05T10:05:39.300Z,51.20
2018-11-05T10:08:08.036Z,51.20
2018-11-05T10:10:36.974Z,51.20
2018-11-05T10:13:05.546Z,51.20
2018-11-05T10:15:34.049Z,51.10
2018-11-05T10:18:02.633Z,51.20
2018-11-05T10:20:31.268Z,51.20
2018-11-05T10:23:00.315Z,51.10
2018-11-05T10:25:28.829Z,51.10
2018-11-05T10:28:03.973Z,51.10
2018-11-05T10:30:32.760Z,51.00
2018-11-05T10:33:01.423Z,51.10
2018-11-05T10:35:35.408Z,51.00
2018-11-05T10:38:03.952Z,51.00
2018-11-05T10:40:32.620Z,51.00
2018-11-05T10:43:02.019Z,51.00
2018-11-05T10:45:31.505Z,51.00
2018-11-05T10:48:00.478Z,51.00
2018-11-05T10:50:30.101Z,51.00
2018-11-05T10:52:59.558Z,51.00
2018-11-05T10:55:28.118Z,51.00
2018-11-05T10:57:56.858Z,51.00
2018-11-05T11:00:30.705Z,51.00
2018-11-05T11:03:04.624Z,50.90
2018-11-05T11:05:33.178Z,51.00
2018-11-05T11:08:02.425Z,51.00
2018-11-05T11:10:31.747Z,51.00
2018-11-05T11:13:00.245Z,51.20
2018-11-05T11:15:28.729Z,51.40
2018-11-05T11:17:58.066Z,51.50
2018-11-05T11:20:26.552Z,51.50
2018-11-05T11:22:55.172Z,51.50
2018-11-05T11:25:23.686Z,51.60
2018-11-05T11:27:58.938Z,51.60
2018-11-05T11:30:27.358Z,51.60
2018-11-05T11:32:55.859Z,51.50
2018-11-05T11:35:24.437Z,51.50
2018-11-05T11:37:52.935Z,51.60
2018-11-05T11:40:23.011Z,51.70
2018-11-05T11:42:51.589Z,51.70
2018-11-05T11:45:21.384Z,51.70
2018-11-05T11:47:50.184Z,51.70
2018-11-05T11:50:19.013Z,51.90
2018-11-05T11:52:48.036Z,51.90
2018-11-05T11:55:17.629Z,51.90
2018-11-05T11:57:46.280Z,51.90
2018-11-05T12:00:17.824Z,51.90
2018-11-05T12:02:47.060Z,51.60
2018-11-05T12:05:15.771Z,51.50
2018-11-05T12:07:44.329Z,51.40
2018-11-05T12:10:16.185Z,51.30
2018-11-05T12:12:44.988Z,51.30
2018-11-05T12:15:14.512Z,51.20
2018-11-05T12:17:43.621Z,51.10
2018-11-05T12:20:14.075Z,51.10
2018-11-05T12:22:43.045Z,51.10
2018-11-05T12:25:11.634Z,51.00
2018-11-05T12:27:40.224Z,51.00
2018-11-05T12:30:11.581Z,50.90
2018-11-05T12:32:40.253Z,50.90
2018-11-05T12:35:09.877Z,50.80
2018-11-05T12:37:38.571Z,50.80
2018-11-05T12:40:08.477Z,50.80
2018-11-05T12:42:36.993Z,50.70
2018-11-05T12:45:06.147Z,50.70
2018-11-05T12:47:34.604Z,50.70
2018-11-05T12:50:03.412Z,50.70
2018-11-05T12:52:32.209Z,50.70
2018-11-05T12:55:00.816Z,50.70
2018-11-05T12:57:29.318Z,50.70
2018-11-05T12:59:57.951Z,50.70
2018-11-05T13:02:27.025Z,50.60
2018-11-05T13:04:56.052Z,50.60
2018-11-05T13:07:25.111Z,50.60
2018-11-05T13:09:53.742Z,50.60
2018-11-05T13:12:22.222Z,50.60
2018-11-05T13:14:50.665Z,50.50
2018-11-05T13:17:19.572Z,50.50
2018-11-05T13:19:48.927Z,50.50
2018-11-05T13:22:23.144Z,50.50
2018-11-05T13:24:52.336Z,50.50
2018-11-05T13:27:21.552Z,50.50
2018-11-05T13:29:50.993Z,50.50
2018-11-05T13:32:19.908Z,50.50
2018-11-05T13:34:48.461Z,50.50
2018-11-05T13:37:18.152Z,50.60
2018-11-05T13:39:46.590Z,50.60
2018-11-05T13:42:15.074Z,50.60
2018-11-05T13:44:44.830Z,50.60
2018-11-05T13:47:16.836Z,50.50
2018-11-05T13:49:45.030Z,50.50
2018-11-05T13:52:14.229Z,50.50
2018-11-05T13:54:42.797Z,50.50
2018-11-05T13:57:11.163Z,50.60
2018-11-05T13:59:40.817Z,50.60
2018-11-05T14:02:09.425Z,50.60
2018-11-05T14:04:37.875Z,50.60
2018-11-05T14:07:07.317Z,50.50
2018-11-05T14:09:38.391Z,50.50
2018-11-05T14:12:09.622Z,50.50
2018-11-05T14:14:38.509Z,50.50
2018-11-05T14:17:08.089Z,50.00
2018-11-05T14:19:39.017Z,50.50
2018-11-05T14:22:08.063Z,50.50
2018-11-05T14:24:41.073Z,50.50
2018-11-05T14:27:09.694Z,50.40
2018-11-05T14:29:38.987Z,50.40
2018-11-05T14:32:07.205Z,50.40
2018-11-05T14:34:36.340Z,50.40
2018-11-05T14:37:06.563Z,50.40
2018-11-05T14:39:35.050Z,50.50
2018-11-05T14:42:06.446Z,50.40
2018-11-05T14:44:35.130Z,50.40
2018-11-05T14:47:04.052Z,50.30
2018-11-05T14:49:32.782Z,50.50
2018-11-05T14:52:01.889Z,50.30
2018-11-05T14:54:30.633Z,50.30
2018-11-05T14:56:59.712Z,50.30
2018-11-05T14:59:28.576Z,50.30
2018-11-05T15:02:02.617Z,50.30
2018-11-05T15:04:31.198Z,50.30
2018-11-05T15:06:59.801Z,50.30
2018-11-05T15:09:30.411Z,50.30
2018-11-05T15:11:59.421Z,50.30
2018-11-05T15:14:28.123Z,50.30
2018-11-05T15:16:56.901Z,50.30
2018-11-05T15:19:25.825Z,49.70
2018-11-05T15:21:55.094Z,50.30
2018-11-05T15:24:23.641Z,50.30
2018-11-05T15:26:52.389Z,50.30
2018-11-05T15:29:20.766Z,50.30
2018-11-05T15:31:49.591Z,50.30
2018-11-05T15:34:18.319Z,50.30
2018-11-05T15:36:47.119Z,50.30
2018-11-05T15:39:15.864Z,50.30
2018-11-05T15:41:45.460Z,50.30
2018-11-05T15:44:14.298Z,50.30
2018-11-05T15:46:43.344Z,50.80
2018-11-05T15:49:12.217Z,51.00
2018-11-05T15:51:41.213Z,50.30
2018-11-05T15:54:09.619Z,50.30
2018-11-05T15:56:38.782Z,50.30
2018-11-05T15:59:07.557Z,50.30
2018-11-05T16:01:36.187Z,50.30
2018-11-05T16:04:05.816Z,50.30
2018-11-05T16:06:34.676Z,50.30
2018-11-05T16:09:03.619Z,50.30
2018-11-05T16:11:32.193Z,50.30
2018-11-05T16:14:00.795Z,50.30
2018-11-05T16:16:30.533Z,50.30
2018-11-05T16:18:59.964Z,50.30
2018-11-05T16:21:28.801Z,50.30
2018-11-05T16:23:57.467Z,50.30
2018-11-05T16:26:26.978Z,50.90
2018-11-05T16:28:56.074Z,50.20
2018-11-05T16:31:24.945Z,50.20
2018-11-05T16:33:53.505Z,50.20
2018-11-05T16:36:23.185Z,50.10
2018-11-05T16:38:55.332Z,50.10
2018-11-05T16:41:23.861Z,50.10
2018-11-05T16:43:52.548Z,50.80
2018-11-05T16:46:21.173Z,50.20
2018-11-05T16:48:49.676Z,50.20
2018-11-05T16:51:19.230Z,50.10
2018-11-05T16:53:48.623Z,50.10
2018-11-05T16:56:17.311Z,50.70
2018-11-05T16:58:46.079Z,50.10
2018-11-05T17:01:15.117Z,50.00
2018-11-05T17:03:43.846Z,50.00
2018-11-05T17:06:12.408Z,50.00
2018-11-05T17:08:40.952Z,50.00
2018-11-05T17:11:09.485Z,50.00
2018-11-05T17:13:38.212Z,50.00
2018-11-05T17:16:06.655Z,50.10
2018-11-05T17:18:36.504Z,50.00
2018-11-05T17:21:05.381Z,50.00
2018-11-05T17:23:33.820Z,50.00
2018-11-05T17:26:02.427Z,50.10
2018-11-05T17:28:31.076Z,50.00
2018-11-05T17:30:59.739Z,50.00
2018-11-05T17:33:28.963Z,50.00
2018-11-05T17:35:57.621Z,50.00
2018-11-05T17:38:26.194Z,50.00
2018-11-05T17:40:54.738Z,50.10
2018-11-05T17:43:23.202Z,50.10
2018-11-05T17:45:51.798Z,50.10
2018-11-05T17:48:20.854Z,50.10
2018-11-05T17:50:49.476Z,50.10
2018-11-05T17:53:18.136Z,50.00
2018-11-05T17:55:46.741Z,50.00
2018-11-05T17:58:15.266Z,50.00
2018-11-05T18:00:44.295Z,50.00
2018-11-05T18:03:12.919Z,50.00
2018-11-05T18:05:41.519Z,50.10
2018-11-05T18:08:09.999Z,50.00
2018-11-05T18:10:38.760Z,50.10
2018-11-05T18:13:08.535Z,50.10
2018-11-05T18:15:37.650Z,50.10
2018-11-05T18:18:08.732Z,50.10
2018-11-05T18:20:37.889Z,50.10
2018-11-05T18:23:15.232Z,50.10
2018-11-05T18:25:59.112Z,50.10
2018-11-05T18:28:33.400Z,50.00
2018-11-05T18:31:06.640Z,50.00
2018-11-05T18:33:39.338Z,50.00
2018-11-05T18:36:13.132Z,50.00
2018-11-05T18:38:43.261Z,50.10
2018-11-05T18:41:17.380Z,50.10
2018-11-05T18:43:48.289Z,50.00
2018-11-05T18:46:18.054Z,50.10
2018-11-05T18:48:47.423Z,50.00
2018-11-05T18:51:16.957Z,50.00
2018-11-05T19:17:12.472Z,50.10
2018-11-05T19:19:41.173Z,50.10
2018-11-05T19:22:09.822Z,50.20
2018-11-05T19:24:38.419Z,50.20
2018-11-05T19:44:30.743Z,50.10
2018-11-05T19:47:08.352Z,50.20
2018-11-05T19:49:41.377Z,50.10
2018-11-05T19:52:09.935Z,50.30
2018-11-05T19:54:38.691Z,50.10
2018-11-05T19:57:07.528Z,50.10
2018-11-05T19:59:36.342Z,50.20
2018-11-05T20:02:06.041Z,50.30
2018-11-05T20:04:34.596Z,50.90
2018-11-05T20:07:03.511Z,50.00
2018-11-05T20:09:36.524Z,49.70
2018-11-05T20:12:26.936Z,49.60
2018-11-05T20:14:55.741Z,49.40
2018-11-05T20:19:18.346Z,49.10
2018-11-05T20:21:56.613Z,48.80
2018-11-05T20:24:25.996Z,48.40
2018-11-05T20:26:55.017Z,48.40
2018-11-05T20:29:25.364Z,48.50
2018-11-05T20:31:55.375Z,48.60
2018-11-05T20:34:24.564Z,48.60
2018-11-05T20:36:53.751Z,48.70
2018-11-05T20:39:23.739Z,48.70
2018-11-05T20:42:03.628Z,48.70
2018-11-05T20:44:39.645Z,48.80
2018-11-05T20:47:13.285Z,48.60
2018-11-05T20:49:43.529Z,48.40
2018-11-05T20:52:14.504Z,48.30
2018-11-05T20:54:46.875Z,48.20
2018-11-05T20:57:16.480Z,48.20
2018-11-05T20:59:46.592Z,48.00
2018-11-05T21:02:20.796Z,48.00
2018-11-05T21:04:49.872Z,47.80
2018-11-05T21:07:18.513Z,47.70
2018-11-05T21:09:49.740Z,47.50
2018-11-05T21:12:19.535Z,47.60
2018-11-05T21:14:49.249Z,47.60
2018-11-05T21:17:20.076Z,47.60
2018-11-05T21:19:54.361Z,47.70
2018-11-05T21:22:33.209Z,47.90
2018-11-05T21:25:03.985Z,48.00
2018-11-05T21:27:34.459Z,48.20
2018-11-05T21:30:03.526Z,48.30
2018-11-05T21:32:38.141Z,48.40
2018-11-05T21:35:09.140Z,48.50
2018-11-05T21:37:37.911Z,48.60
2018-11-05T21:40:07.939Z,48.70
2018-11-05T21:42:37.546Z,48.70
2018-11-05T21:45:07.726Z,48.80
2018-11-05T21:47:37.544Z,49.10
2018-11-05T21:50:09.674Z,49.20
2018-11-05T21:52:43.348Z,49.20
2018-11-05T21:55:12.205Z,49.30
2018-11-05T21:57:44.622Z,49.40
2018-11-05T22:00:19.749Z,49.50
2018-11-05T22:02:54.666Z,49.60
2018-11-05T22:05:23.609Z,49.70
2018-11-05T22:07:52.559Z,49.70
2018-11-05T22:10:22.694Z,49.60
2018-11-05T22:12:52.651Z,49.40
2018-11-05T22:15:25.523Z,49.20
2018-11-05T22:17:54.835Z,48.80
2018-11-05T22:20:23.594Z,48.50
2018-11-05T22:22:52.138Z,48.20
2018-11-05T22:25:20.955Z,48.50
2018-11-05T22:27:49.532Z,47.90
2018-11-05T22:30:17.978Z,48.00
2018-11-05T22:32:46.596Z,48.00
2018-11-05T22:35:15.177Z,48.10
2018-11-05T22:37:43.845Z,48.30
2018-11-05T22:40:13.541Z,48.40
2018-11-05T22:42:42.309Z,48.50
2018-11-05T22:45:12.350Z,48.70
2018-11-05T22:47:41.095Z,48.70
2018-11-05T22:50:10.536Z,48.90
2018-11-05T22:52:39.906Z,48.90
2018-11-05T22:55:08.844Z,49.00
2018-11-05T22:57:37.448Z,49.10
2018-11-05T23:00:15.337Z,49.10
2018-11-05T23:02:49.322Z,49.20
2018-11-05T23:05:18.705Z,49.30
2018-11-05T23:07:47.425Z,49.30
2018-11-05T23:10:16.275Z,49.40
2018-11-05T23:12:44.851Z,49.50
2018-11-05T23:15:13.376Z,49.70
2018-11-05T23:17:42.606Z,49.60
2018-11-05T23:20:11.635Z,49.70
2018-11-05T23:22:40.590Z,49.80
2018-11-05T23:25:09.494Z,49.80
2018-11-05T23:27:39.968Z,49.80
2018-11-05T23:30:10.329Z,49.90
2018-11-05T23:32:39.706Z,50.10
2018-11-05T23:35:08.980Z,50.30
2018-11-05T23:37:38.726Z,50.70
2018-11-05T23:40:08.010Z,50.90
2018-11-05T23:42:37.385Z,51.10
2018-11-05T23:45:09.188Z,51.40
2018-11-05T23:47:37.811Z,51.60
2018-11-05T23:50:07.210Z,51.80
2018-11-05T23:52:35.844Z,51.90
2018-11-05T23:55:04.583Z,52.10
2018-11-05T23:57:33.177Z,52.20
